createdAt,value
2022-12-25T00:02:00.710Z,2.60
2022-12-25T00:04:27.677Z,2.80
2022-12-25T00:06:55.493Z,3.30
2022-12-25T00:09:22.428Z,3.17
2022-12-25T00:11:49.128Z,3.33
2022-12-25T00:14:15.843Z,3.20
2022-12-25T00:16:42.787Z,3.33
2022-12-25T00:19:09.478Z,2.90
2022-12-25T00:21:36.252Z,2.93
2022-12-25T00:24:03.583Z,2.57
2022-12-25T00:26:30.373Z,2.60
2022-12-25T00:28:58.251Z,2.70
2022-12-25T00:31:25.654Z,2.43
2022-12-25T00:33:53.100Z,2.80
2022-12-25T00:36:21.986Z,2.60
2022-12-25T00:38:48.775Z,2.30
2022-12-25T00:41:38.389Z,2.70
2022-12-25T00:44:06.019Z,2.93
2022-12-25T00:46:32.773Z,2.97
2022-12-25T00:49:02.644Z,2.73
2022-12-25T00:51:29.389Z,2.40
2022-12-25T00:53:56.000Z,3.00
2022-12-25T00:56:22.739Z,2.90
2022-12-25T00:58:49.387Z,2.73
2022-12-25T01:01:16.155Z,2.60
2022-12-25T01:03:43.207Z,2.53
2022-12-25T01:06:12.760Z,2.63
2022-12-25T01:09:00.120Z,2.60
2022-12-25T01:11:27.590Z,2.70
2022-12-25T01:13:54.277Z,2.47
2022-12-25T01:16:21.309Z,2.47
2022-12-25T01:18:48.018Z,2.10
2022-12-25T01:21:17.623Z,2.60
2022-12-25T01:23:44.841Z,2.20
2022-12-25T01:26:13.417Z,2.30
2022-12-25T01:28:40.840Z,2.20
2022-12-25T01:31:14.612Z,2.30
2022-12-25T01:33:43.637Z,2.37
2022-12-25T01:36:24.952Z,2.30
2022-12-25T01:38:52.977Z,2.20
2022-12-25T01:41:22.098Z,2.30
2022-12-25T01:44:02.045Z,2.60
2022-12-25T01:46:29.848Z,2.57
2022-12-25T01:49:00.465Z,2.80
2022-12-25T01:51:37.011Z,2.53
2022-12-25T01:54:07.641Z,2.70
2022-12-25T01:56:37.592Z,2.53
2022-12-25T01:59:06.325Z,3.00
2022-12-25T02:01:33.171Z,2.17
2022-12-25T02:04:23.658Z,2.50
2022-12-25T02:06:51.685Z,2.20
2022-12-25T02:09:18.940Z,2.30
2022-12-25T02:11:58.856Z,2.27
2022-12-25T02:14:29.701Z,2.67
2022-12-25T02:17:13.213Z,2.53
2022-12-25T02:20:03.399Z,2.20
2022-12-25T02:22:57.669Z,2.47
2022-12-25T02:25:43.463Z,2.13
2022-12-25T02:28:25.123Z,2.20
2022-12-25T02:31:01.237Z,2.30
2022-12-25T02:33:55.781Z,1.97
2022-12-25T02:36:27.355Z,2.53
2022-12-25T02:39:17.590Z,2.50
2022-12-25T02:41:47.906Z,2.37
2022-12-25T02:44:39.600Z,2.30
2022-12-25T02:47:27.035Z,2.13
2022-12-25T02:50:14.907Z,2.50
2022-12-25T02:53:03.263Z,2.17
2022-12-25T02:55:57.404Z,2.37
2022-12-25T02:58:45.442Z,1.80
2022-12-25T03:01:36.532Z,2.00
2022-12-25T03:04:27.063Z,1.67
2022-12-25T03:07:06.070Z,2.07
2022-12-25T03:09:57.765Z,2.13
2022-12-25T03:12:37.535Z,1.93
2022-12-25T03:15:24.973Z,1.97
2022-12-25T03:17:52.102Z,1.57
2022-12-25T03:20:37.516Z,2.10
2022-12-25T03:23:23.043Z,2.43
2022-12-25T03:26:08.417Z,1.90
2022-12-25T03:28:36.259Z,2.10
2022-12-25T03:31:14.091Z,1.83
2022-12-25T03:34:22.996Z,1.90
2022-12-25T03:37:27.712Z,2.20
2022-12-25T03:40:56.092Z,2.07
2022-12-25T03:43:56.570Z,1.57
2022-12-25T03:46:45.428Z,1.50
2022-12-25T03:49:42.047Z,1.93
2022-12-25T03:52:32.575Z,1.77
2022-12-25T03:55:22.853Z,1.60
2022-12-25T03:58:08.537Z,1.73
2022-12-25T04:00:53.691Z,2.00
2022-12-25T04:03:39.109Z,1.83
2022-12-25T04:06:24.729Z,1.93
2022-12-25T04:09:10.005Z,1.97
2022-12-25T04:12:03.336Z,1.60
2022-12-25T04:14:48.814Z,1.97
2022-12-25T04:17:34.301Z,1.93
2022-12-25T04:20:19.645Z,2.00
2022-12-25T04:23:05.051Z,2.43
2022-12-25T04:25:50.475Z,2.00
2022-12-25T04:28:35.943Z,1.87
2022-12-25T04:31:21.980Z,2.83
2022-12-25T04:34:07.127Z,2.93
2022-12-25T04:36:33.820Z,2.37
2022-12-25T04:39:00.477Z,2.60
2022-12-25T04:41:27.143Z,3.07
2022-12-25T04:43:53.760Z,2.63
2022-12-25T04:46:20.426Z,2.83
2022-12-25T04:48:47.845Z,2.60
2022-12-25T04:51:17.753Z,2.77
2022-12-25T04:53:45.461Z,3.20
2022-12-25T04:56:12.597Z,2.93
2022-12-25T04:58:39.359Z,2.73
2022-12-25T05:01:06.244Z,2.63
2022-12-25T05:03:33.689Z,2.47
2022-12-25T05:06:01.364Z,2.63
2022-12-25T05:08:32.347Z,3.10
2022-12-25T05:10:59.243Z,3.20
2022-12-25T05:13:26.284Z,2.63
2022-12-25T05:15:53.211Z,3.20
2022-12-25T05:18:19.898Z,2.63
2022-12-25T05:20:54.631Z,2.37
2022-12-25T05:23:22.179Z,2.93
2022-12-25T05:25:49.021Z,3.37
2022-12-25T05:28:15.999Z,2.80
2022-12-25T05:30:42.802Z,2.97
2022-12-25T05:33:12.546Z,3.07
2022-12-25T05:35:39.985Z,2.67
2022-12-25T05:38:07.808Z,2.60
2022-12-25T05:40:34.850Z,2.00
2022-12-25T05:43:01.537Z,2.13
2022-12-25T05:45:28.332Z,2.40
2022-12-25T05:47:55.010Z,2.47
2022-12-25T05:50:21.718Z,2.57
2022-12-25T05:52:48.391Z,2.27
2022-12-25T05:55:15.098Z,2.47
2022-12-25T05:57:41.803Z,2.63
2022-12-25T06:00:11.783Z,2.53
2022-12-25T06:02:41.230Z,2.40
2022-12-25T06:05:08.403Z,2.93
2022-12-25T06:07:35.052Z,2.40
2022-12-25T06:10:01.737Z,2.73
2022-12-25T06:12:28.383Z,2.43
2022-12-25T06:14:54.996Z,2.50
2022-12-25T06:17:24.487Z,2.40
2022-12-25T06:19:51.130Z,2.57
2022-12-25T06:22:17.818Z,2.33
2022-12-25T06:24:44.555Z,2.20
2022-12-25T06:27:11.211Z,2.10
2022-12-25T06:29:37.919Z,2.23
2022-12-25T06:32:04.855Z,2.10
2022-12-25T06:34:31.557Z,2.97
2022-12-25T06:36:58.185Z,2.07
2022-12-25T06:39:25.550Z,2.17
2022-12-25T06:41:52.271Z,2.73
2022-12-25T06:44:18.993Z,2.30
2022-12-25T06:46:45.786Z,2.20
2022-12-25T06:49:12.628Z,2.30
2022-12-25T06:51:39.273Z,1.83
2022-12-25T06:54:06.415Z,2.30
2022-12-25T06:56:33.987Z,1.80
2022-12-25T06:59:06.481Z,2.13
2022-12-25T07:01:42.068Z,1.93
2022-12-25T07:04:38.320Z,1.80
2022-12-25T07:07:09.181Z,1.90
2022-12-25T07:09:38.731Z,2.03
2022-12-25T07:12:13.677Z,1.90
2022-12-25T07:14:40.797Z,1.83
2022-12-25T07:17:07.489Z,2.10
2022-12-25T07:19:36.145Z,2.27
2022-12-25T07:22:06.451Z,1.93
2022-12-25T07:24:33.168Z,2.00
2022-12-25T07:26:59.915Z,1.90
2022-12-25T07:29:26.627Z,1.67
2022-12-25T07:31:53.330Z,2.10
2022-12-25T07:34:20.119Z,2.00
2022-12-25T07:36:46.921Z,1.87
2022-12-25T07:39:13.812Z,2.00
2022-12-25T07:41:40.515Z,1.60
2022-12-25T07:44:14.600Z,1.90
2022-12-25T07:46:41.514Z,2.20
2022-12-25T07:49:08.180Z,2.00
2022-12-25T07:51:34.925Z,1.90
2022-12-25T07:54:01.654Z,2.40
2022-12-25T07:56:28.507Z,2.20
2022-12-25T07:58:55.202Z,2.13
2022-12-25T08:01:24.739Z,1.93
2022-12-25T08:03:52.533Z,2.20
2022-12-25T08:06:20.341Z,1.60
2022-12-25T08:08:47.157Z,1.90
2022-12-25T08:11:14.401Z,2.03
2022-12-25T08:13:41.296Z,2.00
2022-12-25T08:16:10.173Z,2.07
2022-12-25T08:18:38.107Z,2.00
2022-12-25T08:21:10.258Z,1.97
2022-12-25T08:23:39.357Z,2.33
2022-12-25T08:26:08.409Z,2.10
2022-12-25T08:28:35.939Z,2.30
2022-12-25T08:31:10.631Z,2.30
2022-12-25T08:33:37.567Z,2.33
2022-12-25T08:36:06.442Z,1.90
2022-12-25T08:38:33.460Z,1.83
2022-12-25T08:41:00.440Z,2.27
2022-12-25T08:43:27.285Z,2.40
2022-12-25T08:45:53.998Z,2.00
2022-12-25T08:48:20.805Z,2.10
2022-12-25T08:50:48.725Z,2.10
2022-12-25T08:53:15.910Z,2.00
2022-12-25T08:55:43.237Z,1.93
2022-12-25T08:58:10.658Z,2.10
2022-12-25T09:00:37.438Z,1.70
2022-12-25T09:03:04.427Z,1.83
2022-12-25T09:05:31.263Z,1.93
2022-12-25T09:07:57.942Z,2.30
2022-12-25T09:10:24.673Z,1.73
2022-12-25T09:12:51.327Z,1.90
2022-12-25T09:15:18.018Z,2.40
2022-12-25T09:17:44.865Z,2.17
2022-12-25T09:20:11.553Z,2.73
2022-12-25T09:22:38.425Z,2.53
2022-12-25T09:25:05.512Z,2.63
2022-12-25T09:27:32.266Z,2.80
2022-12-25T09:29:59.001Z,2.30
2022-12-25T09:32:25.696Z,2.53
2022-12-25T09:34:52.387Z,2.50
2022-12-25T09:37:19.074Z,2.40
2022-12-25T09:39:46.487Z,2.20
2022-12-25T09:42:23.942Z,2.30
2022-12-25T09:44:59.229Z,2.40
2022-12-25T09:47:30.924Z,2.33
2022-12-25T09:50:03.357Z,2.27
2022-12-25T09:52:33.025Z,2.70
2022-12-25T09:55:14.789Z,2.40
2022-12-25T09:57:45.780Z,2.53
2022-12-25T10:00:18.503Z,2.50
2022-12-25T10:02:55.673Z,2.63
2022-12-25T10:05:44.104Z,2.40
2022-12-25T10:08:39.375Z,2.63
2022-12-25T10:11:38.215Z,2.53
2022-12-25T10:14:10.904Z,2.80
2022-12-25T10:16:55.147Z,2.70
2022-12-25T10:19:50.657Z,2.83
2022-12-25T10:22:29.083Z,2.57
2022-12-25T10:24:59.216Z,2.67
2022-12-25T10:27:25.844Z,2.87
2022-12-25T10:29:56.412Z,2.47
2022-12-25T10:32:23.179Z,2.80
2022-12-25T10:34:50.590Z,2.90
2022-12-25T10:37:17.691Z,2.90
2022-12-25T10:39:46.904Z,2.60
2022-12-25T10:42:46.175Z,3.00
2022-12-25T10:45:12.940Z,2.90
2022-12-25T10:47:44.117Z,2.60
2022-12-25T10:50:26.052Z,2.83
2022-12-25T10:52:56.744Z,2.70
2022-12-25T10:55:28.389Z,2.90
2022-12-25T10:57:57.935Z,2.77
2022-12-25T11:00:27.817Z,3.10
2022-12-25T11:02:55.157Z,2.77
2022-12-25T11:05:33.577Z,3.00
2022-12-25T11:08:02.443Z,2.80
2022-12-25T11:10:33.863Z,3.07
2022-12-25T11:13:01.628Z,3.40
2022-12-25T11:15:42.786Z,3.03
2022-12-25T11:18:21.041Z,3.10
2022-12-25T11:20:52.891Z,3.23
2022-12-25T11:23:21.864Z,2.80
2022-12-25T11:26:02.826Z,2.73
2022-12-25T11:28:32.749Z,2.63
2022-12-25T11:31:02.856Z,2.70
2022-12-25T11:33:36.542Z,2.70
2022-12-25T11:36:14.053Z,2.50
2022-12-25T11:38:40.736Z,2.80
2022-12-25T11:41:12.760Z,2.93
2022-12-25T11:43:46.645Z,2.60
2022-12-25T11:46:45.298Z,2.47
2022-12-25T11:49:16.794Z,2.40
2022-12-25T11:51:47.200Z,2.88
2022-12-25T11:54:37.908Z,2.60
2022-12-25T11:57:06.365Z,2.20
2022-12-25T11:59:49.367Z,2.60
2022-12-25T12:02:28.270Z,2.85
2022-12-25T12:05:14.644Z,2.38
2022-12-25T12:07:52.445Z,2.08
2022-12-25T12:10:41.961Z,2.60
2022-12-25T12:13:30.976Z,2.60
2022-12-25T12:15:58.507Z,2.50
2022-12-25T12:18:27.992Z,3.10
2022-12-25T12:21:09.686Z,3.17
2022-12-25T12:23:57.179Z,3.13
2022-12-25T12:26:27.142Z,2.93
2022-12-25T12:28:57.580Z,3.10
2022-12-25T12:31:25.180Z,3.00
2022-12-25T12:33:56.487Z,2.63
2022-12-25T12:36:35.547Z,2.60
2022-12-25T12:39:05.033Z,3.00
2022-12-25T12:41:46.260Z,2.63
2022-12-25T12:44:15.995Z,2.63
2022-12-25T12:46:52.460Z,2.40
2022-12-25T12:49:32.218Z,2.63
2022-12-25T12:52:23.911Z,2.60
2022-12-25T12:55:09.067Z,2.60
2022-12-25T12:57:40.170Z,2.47
2022-12-25T13:00:19.905Z,2.50
2022-12-25T13:02:52.473Z,2.60
2022-12-25T13:05:48.879Z,2.60
2022-12-25T13:08:27.786Z,2.77
2022-12-25T13:11:12.765Z,2.50
2022-12-25T13:13:42.605Z,2.90
2022-12-25T13:16:34.537Z,2.80
2022-12-25T13:19:07.126Z,2.87
2022-12-25T13:21:34.919Z,2.83
2022-12-25T13:24:16.707Z,2.70
2022-12-25T13:26:43.740Z,2.80
2022-12-25T13:29:39.845Z,2.43
2022-12-25T13:32:18.100Z,3.40
2022-12-25T13:34:44.894Z,2.80
2022-12-25T13:37:17.809Z,2.60
2022-12-25T13:40:17.332Z,2.90
2022-12-25T13:42:46.778Z,2.60
2022-12-25T13:45:13.385Z,3.00
2022-12-25T13:47:49.923Z,2.77
2022-12-25T13:50:31.763Z,2.70
2022-12-25T13:53:12.140Z,3.00
2022-12-25T13:55:41.616Z,2.90
2022-12-25T13:58:25.015Z,2.90
2022-12-25T14:00:54.326Z,2.90
2022-12-25T14:03:27.841Z,2.97
2022-12-25T14:06:00.174Z,2.60
2022-12-25T14:08:31.489Z,2.37
2022-12-25T14:11:01.495Z,2.77
2022-12-25T14:13:30.283Z,2.77
2022-12-25T14:15:57.920Z,2.67
2022-12-25T14:18:25.985Z,2.60
2022-12-25T14:21:15.441Z,2.53
2022-12-25T14:23:48.509Z,3.00
2022-12-25T14:26:16.569Z,2.47
2022-12-25T14:28:48.364Z,3.10
2022-12-25T14:31:15.442Z,2.53
2022-12-25T14:33:45.556Z,2.90
2022-12-25T14:36:13.460Z,2.77
2022-12-25T14:38:43.772Z,3.20
2022-12-25T14:41:33.457Z,4.57
2022-12-25T14:44:25.436Z,3.87
2022-12-25T14:47:13.799Z,3.30
2022-12-25T14:49:40.833Z,2.90
2022-12-25T14:52:17.903Z,3.40
2022-12-25T14:55:00.810Z,2.80
2022-12-25T14:57:34.276Z,2.70
2022-12-25T15:00:10.366Z,3.07
2022-12-25T15:02:42.652Z,2.50
2022-12-25T15:05:30.373Z,2.40
2022-12-25T15:08:06.393Z,2.80
2022-12-25T15:13:21.387Z,2.30
2022-12-25T15:15:54.610Z,2.67
2022-12-25T15:18:27.458Z,2.30
2022-12-25T15:20:55.469Z,2.43
2022-12-25T15:23:22.289Z,2.30
2022-12-25T15:25:50.972Z,2.60
2022-12-25T15:28:18.510Z,2.60
2022-12-25T15:30:45.646Z,2.40
2022-12-25T15:33:17.051Z,2.70
2022-12-25T15:35:44.480Z,2.20
2022-12-25T15:38:13.081Z,2.67
2022-12-25T15:40:40.727Z,2.60
2022-12-25T15:43:14.557Z,2.43
2022-12-25T15:45:49.172Z,2.40
2022-12-25T15:48:15.848Z,2.37
2022-12-25T15:50:44.151Z,2.60
2022-12-25T15:53:10.985Z,2.70
2022-12-25T15:55:38.102Z,2.70
2022-12-25T15:58:04.739Z,2.80
2022-12-25T16:00:31.530Z,2.97
2022-12-25T16:02:58.403Z,2.60
2022-12-25T16:05:26.558Z,3.20
2022-12-25T16:07:53.169Z,2.70
2022-12-25T16:10:20.404Z,2.90
2022-12-25T16:12:47.406Z,2.87
2022-12-25T16:15:15.275Z,2.80
2022-12-25T16:17:42.508Z,2.90
2022-12-25T16:20:09.766Z,3.00
2022-12-25T16:22:39.999Z,2.70
2022-12-25T16:25:13.838Z,2.77
2022-12-25T16:27:40.622Z,2.70
2022-12-25T16:30:07.986Z,2.87
2022-12-25T16:32:35.191Z,2.67
2022-12-25T16:35:02.074Z,3.10
2022-12-25T16:37:29.173Z,2.90
2022-12-25T16:39:55.820Z,2.77
2022-12-25T16:42:22.616Z,2.70
2022-12-25T16:44:49.273Z,3.13
2022-12-25T16:47:15.947Z,2.90
2022-12-25T16:49:45.791Z,2.60
2022-12-25T16:52:12.447Z,2.97
2022-12-25T16:54:39.108Z,2.87
2022-12-25T16:57:05.872Z,2.87
2022-12-25T16:59:32.939Z,2.93
2022-12-25T17:01:59.748Z,2.77
2022-12-25T17:04:28.071Z,3.10
2022-12-25T17:06:54.835Z,3.43
2022-12-25T17:09:21.539Z,3.20
2022-12-25T17:11:48.497Z,3.60
2022-12-25T17:14:15.641Z,2.90
2022-12-25T17:16:42.694Z,3.30
2022-12-25T17:19:19.465Z,3.33
2022-12-25T17:21:47.297Z,3.40
2022-12-25T17:24:14.534Z,3.10
2022-12-25T17:26:44.084Z,3.67
2022-12-25T17:29:14.683Z,3.60
2022-12-25T17:31:45.343Z,3.70
2022-12-25T17:34:12.142Z,3.80
2022-12-25T17:36:38.849Z,3.67
2022-12-25T17:39:06.377Z,3.80
2022-12-25T17:41:33.417Z,3.60
2022-12-25T17:44:00.143Z,4.17
2022-12-25T17:46:29.223Z,4.20
2022-12-25T17:48:57.848Z,3.90
2022-12-25T17:51:27.173Z,4.17
2022-12-25T17:53:56.891Z,4.60
2022-12-25T17:56:24.390Z,4.20
2022-12-25T17:58:53.294Z,4.57
2022-12-25T18:01:20.862Z,4.30
2022-12-25T18:03:48.359Z,4.67
2022-12-25T18:06:19.219Z,4.33
2022-12-25T18:08:47.174Z,4.20
2022-12-25T18:11:16.809Z,4.40
2022-12-25T18:13:48.184Z,4.67
2022-12-25T18:16:15.613Z,4.63
2022-12-25T18:18:49.529Z,4.50
2022-12-25T18:21:18.699Z,4.50
2022-12-25T18:23:46.270Z,4.67
2022-12-25T18:26:13.868Z,4.77
2022-12-25T18:28:42.284Z,4.83
2022-12-25T18:31:20.344Z,5.00
2022-12-25T18:33:47.476Z,4.60
2022-12-25T18:36:16.328Z,4.93
2022-12-25T18:38:43.104Z,4.80
2022-12-25T18:41:10.525Z,4.87
2022-12-25T18:43:52.465Z,4.63
2022-12-25T18:46:24.869Z,4.80
2022-12-25T18:48:53.605Z,4.67
2022-12-25T18:51:20.297Z,4.97
2022-12-25T18:53:47.136Z,4.23
2022-12-25T18:56:17.501Z,4.60
2022-12-25T18:58:45.617Z,4.40
2022-12-25T19:01:18.433Z,4.50
2022-12-25T19:03:46.187Z,4.90
2022-12-25T19:06:17.978Z,4.67
2022-12-25T19:08:44.700Z,5.00
2022-12-25T19:11:11.467Z,5.20
2022-12-25T19:13:38.203Z,5.10
2022-12-25T19:16:05.475Z,5.10
2022-12-25T19:18:32.259Z,5.00
2022-12-25T19:21:04.151Z,5.03
2022-12-25T19:23:31.399Z,5.23
2022-12-25T19:25:58.186Z,5.00
2022-12-25T19:28:25.403Z,5.13
2022-12-25T19:30:54.123Z,4.90
2022-12-25T19:33:22.739Z,4.80
2022-12-25T19:35:49.855Z,4.40
2022-12-25T19:38:16.564Z,4.50
2022-12-25T19:41:00.244Z,5.50
2022-12-25T19:43:32.630Z,5.20
2022-12-25T19:46:00.475Z,5.20
2022-12-25T19:48:29.717Z,4.83
2022-12-25T19:50:56.736Z,5.07
2022-12-25T19:53:24.292Z,5.37
2022-12-25T19:55:55.421Z,5.20
2022-12-25T19:58:23.686Z,4.90
2022-12-25T20:01:01.493Z,5.00
2022-12-25T20:03:28.322Z,4.47
2022-12-25T20:05:55.117Z,4.93
2022-12-25T20:08:22.007Z,5.10
2022-12-25T20:10:49.175Z,5.30
2022-12-25T20:13:16.350Z,4.87
2022-12-25T20:15:43.062Z,5.00
2022-12-25T20:18:10.172Z,4.77
2022-12-25T20:20:36.888Z,4.47
2022-12-25T20:23:03.972Z,4.53
2022-12-25T20:25:30.591Z,4.90
2022-12-25T20:27:58.040Z,4.80
2022-12-25T20:30:24.805Z,5.23
2022-12-25T20:32:51.543Z,4.60
2022-12-25T20:35:18.950Z,4.10
2022-12-25T20:37:45.676Z,4.43
2022-12-25T20:40:12.681Z,3.90
2022-12-25T20:42:39.367Z,4.03
2022-12-25T20:45:07.726Z,4.23
2022-12-25T20:47:35.252Z,3.93
2022-12-25T20:50:02.208Z,4.43
2022-12-25T20:52:29.004Z,4.60
2022-12-25T20:54:55.676Z,4.23
2022-12-25T20:57:22.436Z,4.33
2022-12-25T20:59:49.307Z,4.60
2022-12-25T21:02:34.211Z,4.20
2022-12-25T21:05:07.910Z,4.00
2022-12-25T21:07:34.687Z,3.90
2022-12-25T21:10:01.291Z,3.90
2022-12-25T21:12:28.036Z,4.10
2022-12-25T21:14:54.842Z,4.07
2022-12-25T21:17:21.939Z,3.93
2022-12-25T21:19:49.558Z,4.07
2022-12-25T21:22:16.247Z,4.00
2022-12-25T21:24:42.969Z,4.10
2022-12-25T21:27:09.698Z,3.70
2022-12-25T21:29:36.621Z,3.60
2022-12-25T21:32:21.599Z,3.80
2022-12-25T21:34:48.288Z,3.73
2022-12-25T21:37:14.939Z,3.80
2022-12-25T21:39:41.661Z,3.70
2022-12-25T21:42:08.402Z,3.60
2022-12-25T21:44:35.093Z,3.30
2022-12-25T21:47:01.730Z,3.20
2022-12-25T21:49:47.014Z,3.57
2022-12-25T21:52:13.648Z,2.90
2022-12-25T21:54:40.324Z,3.07
2022-12-25T21:57:07.051Z,3.00
2022-12-25T21:59:33.740Z,2.77
2022-12-25T22:02:00.557Z,3.10
2022-12-25T22:04:27.398Z,2.80
2022-12-25T22:07:12.712Z,2.97
2022-12-25T22:09:39.423Z,3.07
2022-12-25T22:12:30.125Z,2.93
2022-12-25T22:15:02.991Z,2.77
2022-12-25T22:17:57.705Z,2.80
2022-12-25T22:20:27.873Z,2.90
2022-12-25T22:22:54.840Z,2.30
2022-12-25T22:25:21.948Z,2.37
2022-12-25T22:27:49.633Z,2.63
2022-12-25T22:30:19.113Z,2.40
2022-12-25T22:32:46.517Z,2.40
2022-12-25T22:35:13.809Z,2.07
2022-12-25T22:37:42.653Z,2.63
2022-12-25T22:40:12.490Z,2.70
2022-12-25T22:42:40.754Z,3.20
2022-12-25T22:45:08.093Z,2.70
2022-12-25T22:47:34.837Z,2.10
2022-12-25T22:50:01.694Z,2.20
2022-12-25T22:52:28.443Z,2.27
2022-12-25T22:54:55.114Z,2.30
2022-12-25T22:57:21.781Z,2.10
2022-12-25T22:59:48.449Z,2.40
2022-12-25T23:02:15.409Z,2.47
2022-12-25T23:04:42.248Z,2.70
2022-12-25T23:07:10.393Z,2.20
2022-12-25T23:09:37.031Z,2.07
2022-12-25T23:12:03.975Z,2.10
2022-12-25T23:14:39.734Z,2.23
2022-12-25T23:17:29.978Z,2.20
2022-12-25T23:20:17.490Z,2.13
2022-12-25T23:23:03.640Z,1.90
2022-12-25T23:25:48.983Z,2.07
2022-12-25T23:28:35.860Z,2.10
2022-12-25T23:31:02.653Z,2.00
2022-12-25T23:33:29.370Z,2.10
2022-12-25T23:35:56.029Z,1.93
2022-12-25T23:38:22.613Z,2.20
2022-12-25T23:40:49.295Z,1.93
2022-12-25T23:43:16.002Z,2.60
2022-12-25T23:45:42.671Z,1.90
2022-12-25T23:48:09.298Z,2.10
2022-12-25T23:50:37.585Z,2.10
2022-12-25T23:53:04.224Z,2.00
2022-12-25T23:55:30.924Z,2.03
2022-12-25T23:57:57.583Z,2.30
